Kentville, Canada
Current Conditions -  °F | °C
As of 5:00 AM on Friday 28 Nov 2014 (Local Time) from CYZX Reporting Station
Snow Showers Snow Showers  
Wind Chill: 30°   Ceiling: 2600
Heat Index: 30°   Visibility: 15mi
Dew Point: 25°   Wind: 0mph
Humidity: 80%   Direction: NA
Pressure: 29.98"   Gusts: NA
Location:  45.08°N, 64.49°W
Report Text: CYZX 280900Z 00000KT 15SM -SHSN OVC026 M01/M04 A2998 RMK SC8 WNDY HILL 00000KT PCPN VRY LGT SLP153
Loading
Personal Weather Stations






























Interactive Weather Map New forecast layout! Learn more

10-Day Weather Forecast

Advertisements
Track Severe Weather on mobile